sensor_id;sensor_type;location;lat;lon;timestamp;pressure;altitude;pressure_sealevel;temperature;humidity
11413;BME280;5762;43.256;26.960;2022-07-29T00:02:16;99770.39;;;21.43;100.00
11413;BME280;5762;43.256;26.960;2022-07-29T00:04:45;99769.81;;;21.44;100.00
11413;BME280;5762;43.256;26.960;2022-07-29T00:07:14;99777.44;;;21.40;100.00
11413;BME280;5762;43.256;26.960;2022-07-29T00:09:43;99786.13;;;21.43;100.00
11413;BME280;5762;43.256;26.960;2022-07-29T00:12:12;99784.11;;;21.39;100.00
11413;BME280;5762;43.256;26.960;2022-07-29T00:14:41;99791.11;;;21.47;100.00
11413;BME280;5762;43.256;26.960;2022-07-29T00:17:10;99789.97;;;21.51;100.00
11413;BME280;5762;43.256;26.960;2022-07-29T00:19:39;99792.88;;;21.49;100.00
11413;BME280;5762;43.256;26.960;2022-07-29T00:22:08;99794.59;;;21.44;100.00
11413;BME280;5762;43.256;26.960;2022-07-29T00:24:37;99791.57;;;21.39;100.00
11413;BME280;5762;43.256;26.960;2022-07-29T00:27:06;99792.25;;;21.32;100.00
11413;BME280;5762;43.256;26.960;2022-07-29T00:29:35;99799.50;;;21.31;100.00
11413;BME280;5762;43.256;26.960;2022-07-29T00:32:04;99801.88;;;21.32;100.00
11413;BME280;5762;43.256;26.960;2022-07-29T00:34:34;99805.49;;;21.36;100.00
11413;BME280;5762;43.256;26.960;2022-07-29T00:37:03;99810.48;;;21.40;100.00
11413;BME280;5762;43.256;26.960;2022-07-29T00:39:32;99808.09;;;21.39;100.00
11413;BME280;5762;43.256;26.960;2022-07-29T00:42:02;99809.56;;;21.33;100.00
11413;BME280;5762;43.256;26.960;2022-07-29T00:44:35;99813.84;;;21.30;100.00
11413;BME280;5762;43.256;26.960;2022-07-29T00:47:01;99818.19;;;21.31;100.00
11413;BME280;5762;43.256;26.960;2022-07-29T00:49:30;99815.34;;;21.37;100.00
11413;BME280;5762;43.256;26.960;2022-07-29T00:52:01;99816.84;;;21.45;100.00
11413;BME280;5762;43.256;26.960;2022-07-29T00:54:29;99810.59;;;21.48;100.00
11413;BME280;5762;43.256;26.960;2022-07-29T00:56:59;99804.11;;;21.50;100.00
11413;BME280;5762;43.256;26.960;2022-07-29T00:59:28;99795.81;;;21.46;100.00
11413;BME280;5762;43.256;26.960;2022-07-29T01:01:57;99795.81;;;21.46;100.00
11413;BME280;5762;43.256;26.960;2022-07-29T01:04:27;99791.91;;;21.47;100.00
11413;BME280;5762;43.256;26.960;2022-07-29T01:09:25;99784.75;;;21.43;100.00
11413;BME280;5762;43.256;26.960;2022-07-29T01:11:55;99782.78;;;21.43;100.00
11413;BME280;5762;43.256;26.960;2022-07-29T01:14:25;99782.78;;;21.43;100.00
11413;BME280;5762;43.256;26.960;2022-07-29T01:16:57;99783.37;;;21.43;100.00
11413;BME280;5762;43.256;26.960;2022-07-29T01:21:55;99782.52;;;21.38;100.00
11413;BME280;5762;43.256;26.960;2022-07-29T01:31:57;99787.69;;;21.30;100.00
11413;BME280;5762;43.256;26.960;2022-07-29T01:36:55;99792.28;;;21.23;100.00
11413;BME280;5762;43.256;26.960;2022-07-29T01:39:26;99795.83;;;21.23;100.00
11413;BME280;5762;43.256;26.960;2022-07-29T01:44:27;99792.98;;;21.20;100.00
11413;BME280;5762;43.256;26.960;2022-07-29T01:46:53;99791.02;;;21.20;100.00
11413;BME280;5762;43.256;26.960;2022-07-29T01:54:25;99796.47;;;21.17;100.00
11413;BME280;5762;43.256;26.960;2022-07-29T01:56:50;99794.52;;;21.17;100.00
11413;BME280;5762;43.256;26.960;2022-07-29T01:59:20;99797.84;;;21.17;100.00
11413;BME280;5762;43.256;26.960;2022-07-29T02:01:50;99795.67;;;21.16;100.00
11413;BME280;5762;43.256;26.960;2022-07-29T02:04:20;99798.18;;;21.12;100.00
11413;BME280;5762;43.256;26.960;2022-07-29T02:06:50;99796.95;;;21.09;100.00
11413;BME280;5762;43.256;26.960;2022-07-29T02:09:19;99806.06;;;21.13;100.00
11413;BME280;5762;43.256;26.960;2022-07-29T02:11:49;99808.97;;;21.11;100.00
11413;BME280;5762;43.256;26.960;2022-07-29T02:14:19;99802.39;;;21.05;100.00
11413;BME280;5762;43.256;26.960;2022-07-29T02:16:48;99801.10;;;20.99;100.00
11413;BME280;5762;43.256;26.960;2022-07-29T02:19:18;99807.98;;;20.99;100.00
11413;BME280;5762;43.256;26.960;2022-07-29T02:21:47;99800.65;;;21.07;100.00
11413;BME280;5762;43.256;26.960;2022-07-29T02:24:17;99798.61;;;21.14;100.00
11413;BME280;5762;43.256;26.960;2022-07-29T02:26:46;99796.95;;;21.09;100.00
11413;BME280;5762;43.256;26.960;2022-07-29T02:29:16;99798.62;;;21.04;100.00
11413;BME280;5762;43.256;26.960;2022-07-29T02:31:46;99801.08;;;21.09;100.00
11413;BME280;5762;43.256;26.960;2022-07-29T02:34:16;99804.70;;;21.13;100.00
11413;BME280;5762;43.256;26.960;2022-07-29T02:36:46;99801.39;;;21.17;100.00
11413;BME280;5762;43.256;26.960;2022-07-29T02:39:15;99798.76;;;21.11;100.00
11413;BME280;5762;43.256;26.960;2022-07-29T02:41:47;99807.31;;;21.06;100.00
11413;BME280;5762;43.256;26.960;2022-07-29T02:44:15;99812.61;;;21.05;100.00
11413;BME280;5762;43.256;26.960;2022-07-29T02:49:16;99819.48;;;21.05;100.00
11413;BME280;5762;43.256;26.960;2022-07-29T02:51:45;99819.14;;;20.97;100.00
11413;BME280;5762;43.256;26.960;2022-07-29T02:54:24;99818.56;;;20.97;100.00
11413;BME280;5762;43.256;26.960;2022-07-29T02:56:43;99818.92;;;20.96;100.00
11413;BME280;5762;43.256;26.960;2022-07-29T02:59:13;99817.11;;;20.94;100.00
11413;BME280;5762;43.256;26.960;2022-07-29T03:01:43;99822.55;;;20.90;100.00
11413;BME280;5762;43.256;26.960;2022-07-29T03:04:12;99818.57;;;20.88;100.00
11413;BME280;5762;43.256;26.960;2022-07-29T03:06:42;99826.17;;;20.85;100.00
11413;BME280;5762;43.256;26.960;2022-07-29T03:11:41;99825.56;;;20.72;100.00
11413;BME280;5762;43.256;26.960;2022-07-29T03:14:11;99831.58;;;20.58;100.00
11413;BME280;5762;43.256;26.960;2022-07-29T03:16:41;99830.83;;;20.32;100.00
11413;BME280;5762;43.256;26.960;2022-07-29T03:19:10;99833.29;;;20.28;100.00
11413;BME280;5762;43.256;26.960;2022-07-29T03:21:39;99834.01;;;20.25;100.00
11413;BME280;5762;43.256;26.960;2022-07-29T03:24:08;99835.01;;;20.17;100.00
11413;BME280;5762;43.256;26.960;2022-07-29T03:26:37;99831.09;;;19.98;100.00
11413;BME280;5762;43.256;26.960;2022-07-29T03:29:06;99836.42;;;19.91;100.00
11413;BME280;5762;43.256;26.960;2022-07-29T03:31:36;99839.44;;;19.86;100.00
11413;BME280;5762;43.256;26.960;2022-07-29T03:34:05;99845.38;;;19.88;100.00
11413;BME280;5762;43.256;26.960;2022-07-29T03:36:34;99842.35;;;19.93;100.00
11413;BME280;5762;43.256;26.960;2022-07-29T03:39:03;99847.77;;;19.90;100.00
11413;BME280;5762;43.256;26.960;2022-07-29T03:41:33;99840.81;;;19.86;100.00
11413;BME280;5762;43.256;26.960;2022-07-29T03:44:03;99844.22;;;19.89;100.00
11413;BME280;5762;43.256;26.960;2022-07-29T03:46:33;99841.47;;;19.89;100.00
11413;BME280;5762;43.256;26.960;2022-07-29T03:49:02;99848.28;;;19.95;100.00
11413;BME280;5762;43.256;26.960;2022-07-29T03:51:32;99853.42;;;19.97;100.00
11413;BME280;5762;43.256;26.960;2022-07-29T03:54:02;99852.05;;;19.97;100.00
11413;BME280;5762;43.256;26.960;2022-07-29T03:56:32;99847.30;;;20.03;100.00
11413;BME280;5762;43.256;26.960;2022-07-29T03:59:00;99852.56;;;20.12;100.00
11413;BME280;5762;43.256;26.960;2022-07-29T04:01:30;99848.25;;;20.21;100.00
11413;BME280;5762;43.256;26.960;2022-07-29T04:09:00;99852.92;;;20.65;100.00
11413;BME280;5762;43.256;26.960;2022-07-29T04:11:29;99840.70;;;20.62;100.00
11413;BME280;5762;43.256;26.960;2022-07-29T04:13:58;99837.00;;;20.64;100.00
11413;BME280;5762;43.256;26.960;2022-07-29T04:16:27;99841.60;;;20.80;100.00
11413;BME280;5762;43.256;26.960;2022-07-29T04:18:56;99832.03;;;20.93;100.00
11413;BME280;5762;43.256;26.960;2022-07-29T04:21:25;99836.15;;;21.02;100.00
11413;BME280;5762;43.256;26.960;2022-07-29T04:23:55;99830.84;;;21.13;100.00
11413;BME280;5762;43.256;26.960;2022-07-29T04:26:24;99821.30;;;21.20;100.00
11413;BME280;5762;43.256;26.960;2022-07-29T04:28:53;99815.34;;;21.37;100.00
11413;BME280;5762;43.256;26.960;2022-07-29T04:31:22;99818.73;;;21.54;100.00
11413;BME280;5762;43.256;26.960;2022-07-29T04:33:51;99807.67;;;21.63;100.00
11413;BME280;5762;43.256;26.960;2022-07-29T04:36:22;99802.12;;;21.73;100.00
11413;BME280;5762;43.256;26.960;2022-07-29T04:38:51;99798.30;;;21.81;100.00
11413;BME280;5762;43.256;26.960;2022-07-29T04:41:20;99801.88;;;21.98;100.00
11413;BME280;5762;43.256;26.960;2022-07-29T04:43:49;99803.38;;;22.05;100.00
11413;BME280;5762;43.256;26.960;2022-07-29T04:46:18;99803.80;;;22.24;100.00
11413;BME280;5762;43.256;26.960;2022-07-29T04:48:48;99806.66;;;22.31;100.00
11413;BME280;5762;43.256;26.960;2022-07-29T04:51:17;99795.02;;;22.45;100.00
11413;BME280;5762;43.256;26.960;2022-07-29T04:53:46;99796.61;;;22.66;100.00
11413;BME280;5762;43.256;26.960;2022-07-29T04:56:15;99799.88;;;22.76;100.00
11413;BME280;5762;43.256;26.960;2022-07-29T04:58:44;99800.61;;;22.86;100.00
11413;BME280;5762;43.256;26.960;2022-07-29T05:01:13;99797.41;;;23.04;100.00
11413;BME280;5762;43.256;26.960;2022-07-29T05:06:12;99780.77;;;23.17;100.00
11413;BME280;5762;43.256;26.960;2022-07-29T05:08:41;99784.54;;;23.46;100.00
11413;BME280;5762;43.256;26.960;2022-07-29T05:13:40;99759.09;;;23.74;100.00
11413;BME280;5762;43.256;26.960;2022-07-29T05:16:09;99761.33;;;23.85;100.00
11413;BME280;5762;43.256;26.960;2022-07-29T05:18:38;99762.88;;;23.79;100.00
11413;BME280;5762;43.256;26.960;2022-07-29T05:21:07;99770.03;;;23.87;100.00
11413;BME280;5762;43.256;26.960;2022-07-29T05:23:36;99767.68;;;23.96;100.00
11413;BME280;5762;43.256;26.960;2022-07-29T05:26:06;99768.33;;;24.06;100.00
11413;BME280;5762;43.256;26.960;2022-07-29T05:28:35;99759.69;;;24.15;100.00
11413;BME280;5762;43.256;26.960;2022-07-29T05:31:04;99753.85;;;24.38;100.00
11413;BME280;5762;43.256;26.960;2022-07-29T05:33:33;99749.56;;;24.55;100.00
11413;BME280;5762;43.256;26.960;2022-07-29T05:36:04;99749.78;;;24.73;100.00
11413;BME280;5762;43.256;26.960;2022-07-29T05:38:33;99743.88;;;24.93;100.00
11413;BME280;5762;43.256;26.960;2022-07-29T05:41:02;99744.47;;;25.31;100.00
11413;BME280;5762;43.256;26.960;2022-07-29T05:43:32;99746.04;;;25.43;100.00
11413;BME280;5762;43.256;26.960;2022-07-29T05:46:01;99747.22;;;25.53;100.00
11413;BME280;5762;43.256;26.960;2022-07-29T05:48:30;99747.41;;;25.64;100.00
11413;BME280;5762;43.256;26.960;2022-07-29T05:50:59;99750.36;;;25.73;100.00
11413;BME280;5762;43.256;26.960;2022-07-29T05:53:29;99557.84;;;24.51;100.00
11413;BME280;5762;43.256;26.960;2022-07-29T05:55:58;99745.16;;;25.92;100.00
11413;BME280;5762;43.256;26.960;2022-07-29T05:58:27;99745.89;;;26.03;100.00
11413;BME280;5762;43.256;26.960;2022-07-29T06:00:56;99747.27;;;26.07;100.00
11413;BME280;5762;43.256;26.960;2022-07-29T06:03:26;99742.07;;;26.20;100.00
11413;BME280;5762;43.256;26.960;2022-07-29T06:05:55;99741.29;;;26.16;100.00
11413;BME280;5762;43.256;26.960;2022-07-29T06:08:24;99737.69;;;26.26;100.00
11413;BME280;5762;43.256;26.960;2022-07-29T06:10:54;99739.55;;;26.50;100.00
11413;BME280;5762;43.256;26.960;2022-07-29T06:13:23;99739.28;;;26.63;100.00
11413;BME280;5762;43.256;26.960;2022-07-29T06:15:52;99742.03;;;26.67;100.00
11413;BME280;5762;43.256;26.960;2022-07-29T06:18:22;99735.77;;;26.82;100.00
11413;BME280;5762;43.256;26.960;2022-07-29T06:20:51;99739.72;;;26.84;100.00
11413;BME280;5762;43.256;26.960;2022-07-29T06:23:20;99746.56;;;27.02;100.00
11413;BME280;5762;43.256;26.960;2022-07-29T06:25:49;99743.30;;;27.11;100.00
11413;BME280;5762;43.256;26.960;2022-07-29T06:28:19;99742.58;;;27.25;100.00
11413;BME280;5762;43.256;26.960;2022-07-29T06:30:48;99737.81;;;27.45;100.00
11413;BME280;5762;43.256;26.960;2022-07-29T06:33:17;99734.03;;;27.47;100.00
11413;BME280;5762;43.256;26.960;2022-07-29T06:35:47;99734.41;;;27.71;100.00
11413;BME280;5762;43.256;26.960;2022-07-29T06:38:16;99737.09;;;27.78;100.00
11413;BME280;5762;43.256;26.960;2022-07-29T06:40:45;99733.92;;;27.61;100.00
11413;BME280;5762;43.256;26.960;2022-07-29T06:43:14;99735.42;;;27.47;100.00
11413;BME280;5762;43.256;26.960;2022-07-29T06:45:44;99743.75;;;27.47;100.00
11413;BME280;5762;43.256;26.960;2022-07-29T06:48:13;99739.48;;;27.57;100.00
11413;BME280;5762;43.256;26.960;2022-07-29T06:50:42;99736.42;;;27.45;100.00
11413;BME280;5762;43.256;26.960;2022-07-29T06:53:11;99742.59;;;27.44;100.00
11413;BME280;5762;43.256;26.960;2022-07-29T06:55:40;99736.51;;;27.60;100.00
11413;BME280;5762;43.256;26.960;2022-07-29T06:58:10;99735.02;;;27.71;100.00
11413;BME280;5762;43.256;26.960;2022-07-29T07:00:39;99735.36;;;27.73;100.00
11413;BME280;5762;43.256;26.960;2022-07-29T07:03:08;99733.70;;;27.79;100.00
11413;BME280;5762;43.256;26.960;2022-07-29T07:05:37;99730.06;;;27.85;100.00
11413;BME280;5762;43.256;26.960;2022-07-29T07:08:06;99731.83;;;27.87;100.00
11413;BME280;5762;43.256;26.960;2022-07-29T07:10:38;99729.02;;;28.06;100.00
11413;BME280;5762;43.256;26.960;2022-07-29T07:13:09;99726.84;;;28.06;100.00
11413;BME280;5762;43.256;26.960;2022-07-29T07:15:38;99726.55;;;28.42;100.00
11413;BME280;5762;43.256;26.960;2022-07-29T07:18:08;99735.72;;;28.69;100.00
11413;BME280;5762;43.256;26.960;2022-07-29T07:20:37;99736.73;;;28.79;100.00
11413;BME280;5762;43.256;26.960;2022-07-29T07:23:06;99735.77;;;28.93;100.00
11413;BME280;5762;43.256;26.960;2022-07-29T07:25:35;99736.33;;;29.08;100.00
11413;BME280;5762;43.256;26.960;2022-07-29T07:28:04;99735.22;;;29.25;100.00
11413;BME280;5762;43.256;26.960;2022-07-29T07:30:36;99730.25;;;29.24;100.00
11413;BME280;5762;43.256;26.960;2022-07-29T07:33:05;99733.09;;;29.56;100.00
11413;BME280;5762;43.256;26.960;2022-07-29T07:35:34;99731.99;;;29.61;100.00
11413;BME280;5762;43.256;26.960;2022-07-29T07:38:03;99728.27;;;29.80;100.00
11413;BME280;5762;43.256;26.960;2022-07-29T07:40:33;99730.14;;;29.94;100.00
11413;BME280;5762;43.256;26.960;2022-07-29T07:43:02;99738.58;;;30.03;100.00
11413;BME280;5762;43.256;26.960;2022-07-29T07:48:01;99724.23;;;30.12;99.59
11413;BME280;5762;43.256;26.960;2022-07-29T07:50:30;99733.38;;;30.41;95.56
11413;BME280;5762;43.256;26.960;2022-07-29T07:52:59;99727.88;;;30.53;95.28
11413;BME280;5762;43.256;26.960;2022-07-29T07:55:29;99730.62;;;30.57;93.60
11413;BME280;5762;43.256;26.960;2022-07-29T07:57:58;99729.69;;;30.72;92.60
11413;BME280;5762;43.256;26.960;2022-07-29T08:00:27;99725.76;;;31.02;90.66
11413;BME280;5762;43.256;26.960;2022-07-29T08:02:56;99722.78;;;30.92;89.18
11413;BME280;5762;43.256;26.960;2022-07-29T08:05:25;99722.78;;;31.00;89.12
11413;BME280;5762;43.256;26.960;2022-07-29T08:07:54;99715.81;;;30.76;90.84
11413;BME280;5762;43.256;26.960;2022-07-29T08:10:23;99718.27;;;30.82;89.65
11413;BME280;5762;43.256;26.960;2022-07-29T08:12:53;99722.73;;;31.12;86.42
11413;BME280;5762;43.256;26.960;2022-07-29T08:15:21;99721.03;;;31.23;82.13
11413;BME280;5762;43.256;26.960;2022-07-29T08:17:51;99718.91;;;31.43;81.50
11413;BME280;5762;43.256;26.960;2022-07-29T08:22:49;99711.37;;;31.85;77.92
11413;BME280;5762;43.256;26.960;2022-07-29T08:25:19;99719.26;;;31.82;77.33
11413;BME280;5762;43.256;26.960;2022-07-29T08:27:48;99719.55;;;31.72;77.34
11413;BME280;5762;43.256;26.960;2022-07-29T08:30:17;99712.97;;;31.78;77.95
11413;BME280;5762;43.256;26.960;2022-07-29T08:32:47;99706.70;;;32.08;75.20
11413;BME280;5762;43.256;26.960;2022-07-29T08:35:17;99711.58;;;32.33;71.59
11413;BME280;5762;43.256;26.960;2022-07-29T08:37:46;99710.87;;;32.16;70.80
11413;BME280;5762;43.256;26.960;2022-07-29T08:40:15;99705.27;;;31.95;70.48
11413;BME280;5762;43.256;26.960;2022-07-29T08:42:44;99705.84;;;32.23;70.54
11413;BME280;5762;43.256;26.960;2022-07-29T08:45:13;99708.95;;;32.46;71.17
11413;BME280;5762;43.256;26.960;2022-07-29T08:47:43;99703.69;;;32.48;69.64
11413;BME280;5762;43.256;26.960;2022-07-29T08:50:11;99696.27;;;32.29;69.55
11413;BME280;5762;43.256;26.960;2022-07-29T08:52:41;99691.51;;;32.59;69.06
11413;BME280;5762;43.256;26.960;2022-07-29T08:55:10;99691.34;;;32.58;68.91
11413;BME280;5762;43.256;26.960;2022-07-29T08:57:42;99697.25;;;32.81;69.57
11413;BME280;5762;43.256;26.960;2022-07-29T09:00:14;99693.33;;;32.79;67.77
11413;BME280;5762;43.256;26.960;2022-07-29T09:02:44;99692.88;;;32.80;67.06
11413;BME280;5762;43.256;26.960;2022-07-29T09:07:43;99699.20;;;33.06;64.98
11413;BME280;5762;43.256;26.960;2022-07-29T09:10:12;99689.65;;;33.16;64.64
11413;BME280;5762;43.256;26.960;2022-07-29T09:15:11;99687.30;;;33.32;63.81
11413;BME280;5762;43.256;26.960;2022-07-29T09:20:10;99683.05;;;33.27;62.67
11413;BME280;5762;43.256;26.960;2022-07-29T09:22:38;99687.59;;;33.29;63.35
11413;BME280;5762;43.256;26.960;2022-07-29T09:27:37;99679.91;;;33.43;62.27
11413;BME280;5762;43.256;26.960;2022-07-29T09:30:08;99681.32;;;33.25;62.32
11413;BME280;5762;43.256;26.960;2022-07-29T09:37:35;99667.31;;;33.69;60.91
11413;BME280;5762;43.256;26.960;2022-07-29T09:42:34;99660.75;;;33.68;61.29
11413;BME280;5762;43.256;26.960;2022-07-29T09:45:04;99659.31;;;33.80;61.36
11413;BME280;5762;43.256;26.960;2022-07-29T09:50:02;99665.16;;;33.90;60.92
11413;BME280;5762;43.256;26.960;2022-07-29T09:52:32;99660.70;;;34.38;60.87
11413;BME280;5762;43.256;26.960;2022-07-29T09:55:19;99665.18;;;33.95;60.40
11413;BME280;5762;43.256;26.960;2022-07-29T09:57:48;99660.61;;;33.88;60.22
11413;BME280;5762;43.256;26.960;2022-07-29T10:00:18;99663.69;;;34.12;61.59
11413;BME280;5762;43.256;26.960;2022-07-29T10:02:47;99648.59;;;34.19;60.08
11413;BME280;5762;43.256;26.960;2022-07-29T10:07:49;99654.86;;;33.92;60.08
11413;BME280;5762;43.256;26.960;2022-07-29T10:10:18;99649.69;;;34.21;58.88
11413;BME280;5762;43.256;26.960;2022-07-29T10:15:17;99642.29;;;35.22;56.88
11413;BME280;5762;43.256;26.960;2022-07-29T10:17:46;99637.29;;;35.36;55.80
11413;BME280;5762;43.256;26.960;2022-07-29T10:20:15;99647.91;;;35.18;56.09
11413;BME280;5762;43.256;26.960;2022-07-29T10:22:45;99646.12;;;34.75;57.21
11413;BME280;5762;43.256;26.960;2022-07-29T10:25:15;99633.09;;;35.31;56.38
11413;BME280;5762;43.256;26.960;2022-07-29T10:27:45;99632.12;;;35.39;54.73
11413;BME280;5762;43.256;26.960;2022-07-29T10:30:14;99623.66;;;35.66;54.34
11413;BME280;5762;43.256;26.960;2022-07-29T10:42:42;99613.68;;;35.24;54.65
11413;BME280;5762;43.256;26.960;2022-07-29T10:45:12;99612.58;;;35.44;55.27
11413;BME280;5762;43.256;26.960;2022-07-29T10:47:40;99617.27;;;35.47;53.66
11413;BME280;5762;43.256;26.960;2022-07-29T10:50:10;99613.05;;;35.11;53.85
11413;BME280;5762;43.256;26.960;2022-07-29T10:55:08;99602.41;;;35.51;53.43
11413;BME280;5762;43.256;26.960;2022-07-29T10:57:38;99606.09;;;35.85;52.58
11413;BME280;5762;43.256;26.960;2022-07-29T11:05:08;99611.02;;;35.48;52.48
11413;BME280;5762;43.256;26.960;2022-07-29T11:07:37;99605.02;;;35.78;52.20
11413;BME280;5762;43.256;26.960;2022-07-29T11:15:10;99598.81;;;35.51;51.70
11413;BME280;5762;43.256;26.960;2022-07-29T11:22:37;99591.63;;;35.45;52.46
11413;BME280;5762;43.256;26.960;2022-07-29T11:27:36;99587.75;;;34.92;52.82
11413;BME280;5762;43.256;26.960;2022-07-29T11:30:05;99584.56;;;34.72;53.66
11413;BME280;5762;43.256;26.960;2022-07-29T11:32:36;99585.97;;;34.58;52.76
11413;BME280;5762;43.256;26.960;2022-07-29T11:37:34;99568.47;;;35.46;51.64
11413;BME280;5762;43.256;26.960;2022-07-29T11:45:03;99562.88;;;35.92;50.26
11413;BME280;5762;43.256;26.960;2022-07-29T11:47:33;99558.70;;;36.12;49.77
11413;BME280;5762;43.256;26.960;2022-07-29T11:50:03;99548.76;;;36.35;49.45
11413;BME280;5762;43.256;26.960;2022-07-29T11:55:01;99549.69;;;36.79;48.41
11413;BME280;5762;43.256;26.960;2022-07-29T11:57:30;99543.53;;;36.85;48.32
11413;BME280;5762;43.256;26.960;2022-07-29T12:00:00;99542.59;;;37.18;48.13
11413;BME280;5762;43.256;26.960;2022-07-29T12:04:59;99537.27;;;37.64;47.15
11413;BME280;5762;43.256;26.960;2022-07-29T12:09:57;99527.99;;;38.38;45.97
11413;BME280;5762;43.256;26.960;2022-07-29T12:12:27;99526.09;;;38.80;44.86
11413;BME280;5762;43.256;26.960;2022-07-29T12:14:56;99533.22;;;38.00;45.68
11413;BME280;5762;43.256;26.960;2022-07-29T12:19:55;99535.13;;;37.59;46.35
11413;BME280;5762;43.256;26.960;2022-07-29T12:24:55;99522.11;;;36.98;47.56
11413;BME280;5762;43.256;26.960;2022-07-29T12:27:24;99520.62;;;36.21;48.37
11413;BME280;5762;43.256;26.960;2022-07-29T12:29:55;99515.03;;;35.83;49.39
11413;BME280;5762;43.256;26.960;2022-07-29T12:32:23;99518.48;;;35.13;49.33
11413;BME280;5762;43.256;26.960;2022-07-29T12:34:52;99513.18;;;35.02;50.28
11413;BME280;5762;43.256;26.960;2022-07-29T12:37:21;99513.02;;;35.33;50.30
11413;BME280;5762;43.256;26.960;2022-07-29T12:39:50;99509.57;;;35.19;50.44
11413;BME280;5762;43.256;26.960;2022-07-29T12:42:19;99507.12;;;34.94;50.19
11413;BME280;5762;43.256;26.960;2022-07-29T12:44:49;99499.42;;;35.08;49.93
11413;BME280;5762;43.256;26.960;2022-07-29T12:47:19;99500.69;;;35.68;48.81
11413;BME280;5762;43.256;26.960;2022-07-29T12:49:48;99498.91;;;35.84;48.17
11413;BME280;5762;43.256;26.960;2022-07-29T12:54:48;99491.67;;;36.64;46.89
11413;BME280;5762;43.256;26.960;2022-07-29T12:57:17;99484.59;;;37.17;46.08
11413;BME280;5762;43.256;26.960;2022-07-29T12:59:58;99486.91;;;37.38;45.52
11413;BME280;5762;43.256;26.960;2022-07-29T13:04:54;99489.13;;;37.04;46.11
11413;BME280;5762;43.256;26.960;2022-07-29T13:07:15;99483.62;;;37.49;45.84
11413;BME280;5762;43.256;26.960;2022-07-29T13:09:44;99479.94;;;37.93;45.32
11413;BME280;5762;43.256;26.960;2022-07-29T13:12:14;99487.59;;;38.07;44.92
11413;BME280;5762;43.256;26.960;2022-07-29T13:14:44;99470.30;;;38.30;44.64
11413;BME280;5762;43.256;26.960;2022-07-29T13:22:11;99474.37;;;37.99;45.04
11413;BME280;5762;43.256;26.960;2022-07-29T13:24:49;99468.92;;;37.16;45.27
11413;BME280;5762;43.256;26.960;2022-07-29T13:27:09;99472.53;;;36.68;45.37
11413;BME280;5762;43.256;26.960;2022-07-29T13:31:12;99470.52;;;36.83;47.44
11413;BME280;5762;43.256;26.960;2022-07-29T13:33:42;99465.10;;;36.75;47.18
11413;BME280;5762;43.256;26.960;2022-07-29T13:36:10;99463.85;;;36.09;47.60
11413;BME280;5762;43.256;26.960;2022-07-29T13:38:40;99465.92;;;35.71;48.18
11413;BME280;5762;43.256;26.960;2022-07-29T13:41:09;99461.73;;;35.33;48.91
11413;BME280;5762;43.256;26.960;2022-07-29T13:45:38;99460.30;;;35.28;49.55
11413;BME280;5762;43.256;26.960;2022-07-29T13:48:08;99450.88;;;35.45;48.69
11413;BME280;5762;43.256;26.960;2022-07-29T13:50:37;99465.95;;;35.24;48.39
11413;BME280;5762;43.256;26.960;2022-07-29T13:53:06;99455.80;;;35.13;48.58
11413;BME280;5762;43.256;26.960;2022-07-29T13:55:35;99452.66;;;35.24;49.15
11413;BME280;5762;43.256;26.960;2022-07-29T13:58:05;99449.64;;;35.42;48.32
11413;BME280;5762;43.256;26.960;2022-07-29T14:00:34;99455.70;;;35.54;48.62
11413;BME280;5762;43.256;26.960;2022-07-29T14:03:03;99455.54;;;35.53;47.86
11413;BME280;5762;43.256;26.960;2022-07-29T14:05:32;99455.66;;;35.63;47.79
11413;BME280;5762;43.256;26.960;2022-07-29T14:08:01;99457.56;;;35.57;47.68
11413;BME280;5762;43.256;26.960;2022-07-29T14:10:30;99456.61;;;35.60;47.57
11413;BME280;5762;43.256;26.960;2022-07-29T14:12:59;99449.31;;;36.06;46.61
11413;BME280;5762;43.256;26.960;2022-07-29T14:15:28;99452.13;;;35.82;46.74
11413;BME280;5762;43.256;26.960;2022-07-29T14:17:57;99444.94;;;36.05;47.36
11413;BME280;5762;43.256;26.960;2022-07-29T14:20:27;99445.36;;;36.12;46.83
11413;BME280;5762;43.256;26.960;2022-07-29T14:22:56;99444.67;;;36.03;46.79
11413;BME280;5762;43.256;26.960;2022-07-29T14:25:25;99447.13;;;35.81;47.27
11413;BME280;5762;43.256;26.960;2022-07-29T14:30:23;99436.41;;;35.66;47.23
11413;BME280;5762;43.256;26.960;2022-07-29T14:32:56;99441.17;;;35.46;47.72
11413;BME280;5762;43.256;26.960;2022-07-29T14:35:25;99446.70;;;35.27;47.63
11413;BME280;5762;43.256;26.960;2022-07-29T14:37:54;99444.37;;;35.35;47.79
11413;BME280;5762;43.256;26.960;2022-07-29T14:40:23;99441.64;;;35.49;47.72
11413;BME280;5762;43.256;26.960;2022-07-29T14:42:52;99441.34;;;35.43;47.79
11413;BME280;5762;43.256;26.960;2022-07-29T14:45:22;99443.77;;;35.31;47.65
11413;BME280;5762;43.256;26.960;2022-07-29T14:47:51;99442.08;;;35.01;48.55
11413;BME280;5762;43.256;26.960;2022-07-29T14:50:20;99445.39;;;34.77;48.76
11413;BME280;5762;43.256;26.960;2022-07-29T14:52:49;99440.67;;;35.01;49.13
11413;BME280;5762;43.256;26.960;2022-07-29T14:55:18;99446.14;;;35.00;48.96
11413;BME280;5762;43.256;26.960;2022-07-29T14:57:48;99443.36;;;34.68;50.01
11413;BME280;5762;43.256;26.960;2022-07-29T15:00:17;99445.23;;;34.25;50.24
11413;BME280;5762;43.256;26.960;2022-07-29T15:02:46;99442.77;;;34.50;50.29
11413;BME280;5762;43.256;26.960;2022-07-29T15:05:16;99445.10;;;34.52;50.71
11413;BME280;5762;43.256;26.960;2022-07-29T15:07:45;99446.03;;;34.44;51.33
11413;BME280;5762;43.256;26.960;2022-07-29T15:10:14;99442.42;;;34.25;51.04
11413;BME280;5762;43.256;26.960;2022-07-29T15:12:43;99443.82;;;34.21;51.93
11413;BME280;5762;43.256;26.960;2022-07-29T15:15:12;99450.84;;;34.16;51.71
11413;BME280;5762;43.256;26.960;2022-07-29T15:17:41;99444.73;;;33.95;52.20
11413;BME280;5762;43.256;26.960;2022-07-29T15:20:11;99439.57;;;33.93;53.20